# Tabular Observed and Forecast Hydrograph Information
#
# Location: Stanislaus River - Ripon (RIPC1)
#
# File Generation Time: 05/06/2026 at 07:38 AM PDT
# Data Interval: 1 Hour
#
# Most Recent Date & Time of Maximum Observed: 05/01/2026 at 07:00 AM PDT
# Maximum Observed Stage: 41.69 Feet
# Maximum Observed Flow: 938 cfs
#
# Earliest Date & Time of Maximum Forecast: 05/06/2026 at 08:00 AM PDT
# Maximum Forecast Stage: 39.29 Feet
# Maximum Forecast Flow: 374 cfs
#
# OBSERVED
#
# Date & Time (Local) Stage (Feet) Flow (cfs) Trend Observed Status
# ---------------------------------------------------------------------------------
05/01/2026 07 AM PDT 41.69 938 Normal
05/01/2026 08 AM PDT 41.64 922 - Normal
05/01/2026 09 AM PDT 41.59 906 - Normal
05/01/2026 10 AM PDT 41.56 896 - Normal
05/01/2026 11 AM PDT 41.53 887 - Normal
05/01/2026 12 PM PDT 41.50 878 - Normal
05/01/2026 01 PM PDT 41.48 871 - Normal
05/01/2026 02 PM PDT 41.47 868 - Normal
05/01/2026 03 PM PDT 41.45 862 - Normal
05/01/2026 04 PM PDT 41.44 859 - Normal
05/01/2026 05 PM PDT 41.41 851 - Normal
05/01/2026 06 PM PDT 41.40 849 - Normal
05/01/2026 07 PM PDT 41.38 844 - Normal
05/01/2026 08 PM PDT 41.36 839 - Normal
05/01/2026 09 PM PDT 41.32 829 - Normal
05/01/2026 10 PM PDT 41.29 822 - Normal
05/01/2026 11 PM PDT 41.24 809 - Normal
05/02/2026 12 AM PDT 41.19 795 - Normal
05/02/2026 01 AM PDT 41.14 781 - Normal
05/02/2026 02 AM PDT 41.08 764 - Normal
05/02/2026 03 AM PDT 41.03 751 - Normal
05/02/2026 04 AM PDT 40.99 740 - Normal
05/02/2026 05 AM PDT 40.95 730 - Normal
05/02/2026 06 AM PDT 40.91 719 - Normal
05/02/2026 07 AM PDT 40.88 711 - Normal
05/02/2026 08 AM PDT 40.86 706 - Normal
05/02/2026 09 AM PDT 40.83 698 - Normal
05/02/2026 10 AM PDT 40.80 690 - Normal
05/02/2026 11 AM PDT 40.79 688 - Normal
05/02/2026 12 PM PDT 40.77 683 - Normal
05/02/2026 01 PM PDT 40.75 678 - Normal
05/02/2026 02 PM PDT 40.74 675 - Normal
05/02/2026 03 PM PDT 40.73 673 - Normal
05/02/2026 04 PM PDT 40.73 673 0 Normal
05/02/2026 05 PM PDT 40.72 670 - Normal
05/02/2026 06 PM PDT 40.71 668 - Normal
05/02/2026 07 PM PDT 40.70 665 - Normal
05/02/2026 08 PM PDT 40.67 658 - Normal
05/02/2026 09 PM PDT 40.65 653 - Normal
05/02/2026 10 PM PDT 40.63 648 - Normal
05/02/2026 11 PM PDT 40.60 641 - Normal
05/03/2026 12 AM PDT 40.57 634 - Normal
05/03/2026 01 AM PDT 40.54 627 - Normal
05/03/2026 02 AM PDT 40.51 620 - Normal
05/03/2026 03 AM PDT 40.48 613 - Normal
05/03/2026 04 AM PDT 40.45 606 - Normal
05/03/2026 05 AM PDT 40.43 601 - Normal
05/03/2026 06 AM PDT 40.41 597 - Normal
05/03/2026 07 AM PDT 40.39 592 - Normal
05/03/2026 08 AM PDT 40.38 590 - Normal
05/03/2026 09 AM PDT 40.36 586 - Normal
05/03/2026 10 AM PDT 40.35 584 - Normal
05/03/2026 11 AM PDT 40.34 582 - Normal
05/03/2026 12 PM PDT 40.33 580 - Normal
05/03/2026 01 PM PDT 40.32 578 - Normal
05/03/2026 02 PM PDT 40.31 576 - Normal
05/03/2026 03 PM PDT 40.30 574 - Normal
05/03/2026 04 PM PDT 40.30 574 0 Normal
05/03/2026 05 PM PDT 40.29 572 - Normal
05/03/2026 06 PM PDT 40.28 570 - Normal
05/03/2026 07 PM PDT 40.26 566 - Normal
05/03/2026 08 PM PDT 40.25 564 - Normal
05/03/2026 09 PM PDT 40.22 558 - Normal
05/03/2026 10 PM PDT 40.20 554 - Normal
05/03/2026 11 PM PDT 40.18 550 - Normal
05/04/2026 12 AM PDT 40.14 542 - Normal
05/04/2026 01 AM PDT 40.12 538 - Normal
05/04/2026 02 AM PDT 40.10 533 - Normal
05/04/2026 03 AM PDT 40.07 527 - Normal
05/04/2026 04 AM PDT 40.04 521 - Normal
05/04/2026 05 AM PDT 40.02 517 - Normal
05/04/2026 06 AM PDT 40.01 515 - Normal
05/04/2026 07 AM PDT 39.99 511 - Normal
05/04/2026 08 AM PDT 39.97 507 - Normal
05/04/2026 09 AM PDT 39.96 505 - Normal
05/04/2026 10 AM PDT 39.94 501 - Normal
05/04/2026 11 AM PDT 39.93 499 - Normal
05/04/2026 12 PM PDT 39.92 497 - Normal
05/04/2026 01 PM PDT 39.92 497 0 Normal
05/04/2026 02 PM PDT 39.91 495 - Normal
05/04/2026 03 PM PDT 39.91 495 0 Normal
05/04/2026 04 PM PDT 39.90 493 - Normal
05/04/2026 05 PM PDT 39.89 491 - Normal
05/04/2026 06 PM PDT 39.89 491 0 Normal
05/04/2026 07 PM PDT 39.88 489 - Normal
05/04/2026 08 PM PDT 39.86 485 - Normal
05/04/2026 09 PM PDT 39.86 485 0 Normal
05/04/2026 10 PM PDT 39.84 482 - Normal
05/04/2026 11 PM PDT 39.82 478 - Normal
05/05/2026 12 AM PDT 39.80 474 - Normal
05/05/2026 01 AM PDT 39.78 470 - Normal
05/05/2026 02 AM PDT 39.75 464 - Normal
05/05/2026 03 AM PDT 39.72 457 - Normal
05/05/2026 04 AM PDT 39.70 453 - Normal
05/05/2026 05 AM PDT 39.67 447 - Normal
05/05/2026 06 AM PDT 39.64 441 - Normal
05/05/2026 07 AM PDT 39.62 437 - Normal
05/05/2026 08 AM PDT 39.60 433 - Normal
05/05/2026 09 AM PDT 39.58 429 - Normal
05/05/2026 10 AM PDT 39.57 427 - Normal
05/05/2026 11 AM PDT 39.55 423 - Normal
05/05/2026 12 PM PDT 39.54 421 - Normal
05/05/2026 01 PM PDT 39.52 417 - Normal
05/05/2026 02 PM PDT 39.51 415 - Normal
05/05/2026 03 PM PDT 39.50 413 - Normal
05/05/2026 04 PM PDT 39.49 411 - Normal
05/05/2026 05 PM PDT 39.48 409 - Normal
05/05/2026 06 PM PDT 39.47 407 - Normal
05/05/2026 07 PM PDT 39.46 405 - Normal
05/05/2026 08 PM PDT 39.45 403 - Normal
05/05/2026 09 PM PDT 39.44 401 - Normal
05/05/2026 10 PM PDT 39.43 400 - Normal
05/05/2026 11 PM PDT 39.41 396 - Normal
05/06/2026 12 AM PDT 39.39 392 - Normal
05/06/2026 01 AM PDT 39.38 390 - Normal
05/06/2026 02 AM PDT 39.36 386 - Normal
05/06/2026 03 AM PDT 39.34 383 - Normal
05/06/2026 04 AM PDT 39.32 379 - Normal
05/06/2026 05 AM PDT 39.31 378 - Normal
05/06/2026 06 AM PDT 39.30 376 - Normal
05/06/2026 07 AM PDT 39.30 376 0 Normal
#
# FORECAST
#
# Date & Time (Local) Stage (Feet) Flow (cfs) Trend Forecast Status
# ---------------------------------------------------------------------------------
05/06/2026 08 AM PDT 39.29 374 Normal
05/06/2026 09 AM PDT 39.28 372 - Normal
05/06/2026 10 AM PDT 39.28 372 0 Normal
05/06/2026 11 AM PDT 39.28 372 0 Normal
05/06/2026 12 PM PDT 39.27 371 - Normal
05/06/2026 01 PM PDT 39.27 371 0 Normal
05/06/2026 02 PM PDT 39.27 371 0 Normal
05/06/2026 03 PM PDT 39.27 371 0 Normal
05/06/2026 04 PM PDT 39.26 369 - Normal
05/06/2026 05 PM PDT 39.25 367 - Normal
05/06/2026 06 PM PDT 39.23 364 - Normal
05/06/2026 07 PM PDT 39.20 359 - Normal
05/06/2026 08 PM PDT 39.17 353 - Normal
05/06/2026 09 PM PDT 39.13 347 - Normal
05/06/2026 10 PM PDT 39.09 340 - Normal
05/06/2026 11 PM PDT 39.05 333 - Normal
05/07/2026 12 AM PDT 39.00 325 - Normal
05/07/2026 01 AM PDT 38.96 319 - Normal
05/07/2026 02 AM PDT 38.92 312 - Normal
05/07/2026 03 AM PDT 38.88 306 - Normal
05/07/2026 04 AM PDT 38.84 299 - Normal
05/07/2026 05 AM PDT 38.81 295 - Normal
05/07/2026 06 AM PDT 38.78 290 - Normal
05/07/2026 07 AM PDT 38.75 285 - Normal
05/07/2026 08 AM PDT 38.72 281 - Normal
05/07/2026 09 AM PDT 38.70 278 - Normal
05/07/2026 10 AM PDT 38.67 273 - Normal
05/07/2026 11 AM PDT 38.65 270 - Normal
05/07/2026 12 PM PDT 38.63 267 - Normal
05/07/2026 01 PM PDT 38.61 264 - Normal
05/07/2026 02 PM PDT 38.59 261 - Normal
05/07/2026 03 PM PDT 38.56 257 - Normal
05/07/2026 04 PM PDT 38.53 253 - Normal
05/07/2026 05 PM PDT 38.50 248 - Normal
05/07/2026 06 PM PDT 38.47 244 - Normal
05/07/2026 07 PM PDT 38.44 239 - Normal
05/07/2026 08 PM PDT 38.42 237 - Normal
05/07/2026 09 PM PDT 38.39 232 - Normal
05/07/2026 10 PM PDT 38.37 229 - Normal
05/07/2026 11 PM PDT 38.35 227 - Normal
05/08/2026 12 AM PDT 38.33 224 - Normal
05/08/2026 01 AM PDT 38.31 221 - Normal
05/08/2026 02 AM PDT 38.29 218 - Normal
05/08/2026 03 AM PDT 38.27 216 - Normal
05/08/2026 04 AM PDT 38.26 214 - Normal
05/08/2026 05 AM PDT 38.24 212 - Normal
05/08/2026 06 AM PDT 38.23 211 - Normal
05/08/2026 07 AM PDT 38.22 209 - Normal
05/08/2026 08 AM PDT 38.21 208 - Normal
05/08/2026 09 AM PDT 38.20 207 - Normal
05/08/2026 10 AM PDT 38.19 205 - Normal
05/08/2026 11 AM PDT 38.18 204 - Normal
05/08/2026 12 PM PDT 38.18 204 0 Normal
05/08/2026 01 PM PDT 38.17 203 - Normal
05/08/2026 02 PM PDT 38.16 202 - Normal
05/08/2026 03 PM PDT 38.14 199 - Normal
05/08/2026 04 PM PDT 38.12 197 - Normal
05/08/2026 05 PM PDT 38.09 193 - Normal
05/08/2026 06 PM PDT 38.07 191 - Normal
05/08/2026 07 PM PDT 38.04 187 - Normal
05/08/2026 08 PM PDT 38.02 185 - Normal
05/08/2026 09 PM PDT 38.00 182 - Normal
05/08/2026 10 PM PDT 37.98 180 - Normal
05/08/2026 11 PM PDT 37.97 179 - Normal
05/09/2026 12 AM PDT 37.95 177 - Normal
05/09/2026 01 AM PDT 37.94 176 - Normal
05/09/2026 02 AM PDT 37.92 173 - Normal
05/09/2026 03 AM PDT 37.91 172 - Normal
05/09/2026 04 AM PDT 37.90 171 - Normal
05/09/2026 05 AM PDT 37.89 170 - Normal
05/09/2026 06 AM PDT 37.88 169 - Normal
05/09/2026 07 AM PDT 37.87 168 - Normal
05/09/2026 08 AM PDT 37.86 167 - Normal
05/09/2026 09 AM PDT 37.86 167 0 Normal
05/09/2026 10 AM PDT 37.85 166 - Normal
05/09/2026 11 AM PDT 37.85 166 0 Normal
05/09/2026 12 PM PDT 37.84 165 - Normal
05/09/2026 01 PM PDT 37.84 165 0 Normal
05/09/2026 02 PM PDT 37.83 164 - Normal
05/09/2026 03 PM PDT 37.81 161 - Normal
05/09/2026 04 PM PDT 37.79 159 - Normal
05/09/2026 05 PM PDT 37.76 156 - Normal
05/09/2026 06 PM PDT 37.73 153 - Normal
05/09/2026 07 PM PDT 37.71 151 - Normal
05/09/2026 08 PM PDT 37.69 149 - Normal
05/09/2026 09 PM PDT 37.67 147 - Normal
05/09/2026 10 PM PDT 37.65 145 - Normal
05/09/2026 11 PM PDT 37.63 143 - Normal
05/10/2026 12 AM PDT 37.62 141 - Normal
05/10/2026 01 AM PDT 37.60 139 - Normal
05/10/2026 02 AM PDT 37.59 138 - Normal
05/10/2026 03 AM PDT 37.58 137 - Normal
05/10/2026 04 AM PDT 37.57 136 - Normal
05/10/2026 05 AM PDT 37.56 135 - Normal
05/10/2026 06 AM PDT 37.55 134 - Normal
05/10/2026 07 AM PDT 37.55 134 0 Normal
05/10/2026 08 AM PDT 37.54 133 - Normal
05/10/2026 09 AM PDT 37.53 132 - Normal
05/10/2026 10 AM PDT 37.53 132 0 Normal
05/10/2026 11 AM PDT 37.53 132 0 Normal
05/10/2026 12 PM PDT 37.52 131 - Normal
05/10/2026 01 PM PDT 37.52 131 0 Normal
05/10/2026 02 PM PDT 37.52 131 0 Normal
05/10/2026 03 PM PDT 37.52 131 0 Normal
05/10/2026 04 PM PDT 37.52 131 0 Normal
05/10/2026 05 PM PDT 37.52 131 0 Normal
05/10/2026 06 PM PDT 37.52 131 0 Normal
05/10/2026 07 PM PDT 37.52 131 0 Normal
05/10/2026 08 PM PDT 37.52 131 0 Normal
05/10/2026 09 PM PDT 37.52 131 0 Normal
05/10/2026 10 PM PDT 37.52 131 0 Normal
05/10/2026 11 PM PDT 37.52 131 0 Normal
05/11/2026 12 AM PDT 37.53 132 + Normal
05/11/2026 01 AM PDT 37.53 132 0 Normal
05/11/2026 02 AM PDT 37.53 132 0 Normal
05/11/2026 03 AM PDT 37.54 133 + Normal
05/11/2026 04 AM PDT 37.54 133 0 Normal
05/11/2026 05 AM PDT 37.54 133 0 Normal
#
# NOTE 1: Stages are rounded to the nearest hundredth (.01) of a foot.
# NOTE 2: Flows are rounded to the nearest (1) cfs.
# NOTE 3: Trends are determined using hourly change in unrounded stage and flow.
# NOTE 4: Maximum Values are determined using unrounded stage and flow.
|